Terminal Aerodrome Forecast
Issued by NWS Louisville, KY

Home | Current Version | Previous Version | Text Only | Print | Product List | Glossary On
Versions: 1 2 3 4 5 6 7 8 9 10 11 12 13 14 15 16 17 18 19 20 21 22 23 24 25 26 27
000
FTUS43 KLMK 040500
TAFBWG
TAF
KBWG 040536Z 0406/0506 26009KT 6SM -SHRA BR SCT009 BKN012
      TEMPO 0406/0408 3SM -SHRA BR BKN009
     FM040800 33007KT 4SM -SHRA BR BKN006
     FM042100 36009KT 2SM -RAPL BR BKN008
     FM042300 36009KT 2SM -PL BR BKN010
     FM050100 36011KT 1SM -SN BR BKN010=

USA.gov is the U.S. government's official web portal to all federal, state and local government web resources and services.